sensor_id;sensor_type;location;lat;lon;timestamp;temperature;humidity
9033;DHT22;4551;53.164;8.210;2023-05-07T00:02:18;11.60;99.90
9033;DHT22;4551;53.164;8.210;2023-05-07T00:04:48;11.50;99.90
9033;DHT22;4551;53.164;8.210;2023-05-07T00:07:17;11.60;99.90
9033;DHT22;4551;53.164;8.210;2023-05-07T00:09:45;11.40;99.90
9033;DHT22;4551;53.164;8.210;2023-05-07T00:12:13;11.50;99.90
9033;DHT22;4551;53.164;8.210;2023-05-07T00:14:40;11.40;99.90
9033;DHT22;4551;53.164;8.210;2023-05-07T00:17:08;11.40;99.90
9033;DHT22;4551;53.164;8.210;2023-05-07T00:19:36;11.40;99.90
9033;DHT22;4551;53.164;8.210;2023-05-07T00:22:06;11.50;99.90
9033;DHT22;4551;53.164;8.210;2023-05-07T00:24:40;11.50;99.90
9033;DHT22;4551;53.164;8.210;2023-05-07T00:27:16;11.60;99.90
9033;DHT22;4551;53.164;8.210;2023-05-07T00:29:51;11.60;99.90
9033;DHT22;4551;53.164;8.210;2023-05-07T00:32:21;11.60;99.90
9033;DHT22;4551;53.164;8.210;2023-05-07T00:34:49;11.50;99.90
9033;DHT22;4551;53.164;8.210;2023-05-07T00:37:19;11.40;99.90
9033;DHT22;4551;53.164;8.210;2023-05-07T00:39:47;11.40;99.90
9033;DHT22;4551;53.164;8.210;2023-05-07T00:42:15;11.50;99.90
9033;DHT22;4551;53.164;8.210;2023-05-07T00:44:43;11.50;99.90
9033;DHT22;4551;53.164;8.210;2023-05-07T00:47:11;11.50;99.90
9033;DHT22;4551;53.164;8.210;2023-05-07T00:49:41;11.50;99.90
9033;DHT22;4551;53.164;8.210;2023-05-07T00:52:14;11.50;99.90
9033;DHT22;4551;53.164;8.210;2023-05-07T00:54:44;11.50;99.90
9033;DHT22;4551;53.164;8.210;2023-05-07T00:57:14;11.40;99.90
9033;DHT22;4551;53.164;8.210;2023-05-07T00:59:42;11.40;99.90
9033;DHT22;4551;53.164;8.210;2023-05-07T01:02:10;11.30;99.90
9033;DHT22;4551;53.164;8.210;2023-05-07T01:04:39;11.20;99.90
9033;DHT22;4551;53.164;8.210;2023-05-07T01:07:08;11.20;99.90
9033;DHT22;4551;53.164;8.210;2023-05-07T01:09:37;11.20;99.90
9033;DHT22;4551;53.164;8.210;2023-05-07T01:12:06;11.10;99.90
9033;DHT22;4551;53.164;8.210;2023-05-07T01:14:35;11.20;99.90
9033;DHT22;4551;53.164;8.210;2023-05-07T01:17:03;11.10;99.90
9033;DHT22;4551;53.164;8.210;2023-05-07T01:19:31;11.10;99.90
9033;DHT22;4551;53.164;8.210;2023-05-07T01:22:01;11.10;99.90
9033;DHT22;4551;53.164;8.210;2023-05-07T01:24:31;10.90;99.90
9033;DHT22;4551;53.164;8.210;2023-05-07T01:27:01;10.80;99.90
9033;DHT22;4551;53.164;8.210;2023-05-07T01:29:29;10.70;99.90
9033;DHT22;4551;53.164;8.210;2023-05-07T01:32:01;10.80;99.90
9033;DHT22;4551;53.164;8.210;2023-05-07T01:34:31;10.80;99.90
9033;DHT22;4551;53.164;8.210;2023-05-07T01:37:02;10.80;99.90
9033;DHT22;4551;53.164;8.210;2023-05-07T01:39:31;10.80;99.90
9033;DHT22;4551;53.164;8.210;2023-05-07T01:42:02;10.80;99.90
9033;DHT22;4551;53.164;8.210;2023-05-07T01:44:34;10.90;99.90
9033;DHT22;4551;53.164;8.210;2023-05-07T01:47:03;10.60;99.90
9033;DHT22;4551;53.164;8.210;2023-05-07T01:49:32;10.70;99.90
9033;DHT22;4551;53.164;8.210;2023-05-07T01:52:01;10.70;99.90
9033;DHT22;4551;53.164;8.210;2023-05-07T01:54:30;10.80;99.90
9033;DHT22;4551;53.164;8.210;2023-05-07T01:56:59;10.80;99.90
9033;DHT22;4551;53.164;8.210;2023-05-07T01:59:27;10.90;99.90
9033;DHT22;4551;53.164;8.210;2023-05-07T02:01:55;10.70;99.90
9033;DHT22;4551;53.164;8.210;2023-05-07T02:04:23;10.70;99.90
9033;DHT22;4551;53.164;8.210;2023-05-07T02:06:52;10.80;99.90
9033;DHT22;4551;53.164;8.210;2023-05-07T02:09:20;10.80;99.90
9033;DHT22;4551;53.164;8.210;2023-05-07T02:11:48;10.80;99.90
9033;DHT22;4551;53.164;8.210;2023-05-07T02:14:18;10.70;99.90
9033;DHT22;4551;53.164;8.210;2023-05-07T02:16:46;10.70;99.90
9033;DHT22;4551;53.164;8.210;2023-05-07T02:19:14;10.70;99.90
9033;DHT22;4551;53.164;8.210;2023-05-07T02:21:44;10.60;99.90
9033;DHT22;4551;53.164;8.210;2023-05-07T02:24:17;10.50;99.90
9033;DHT22;4551;53.164;8.210;2023-05-07T02:26:45;10.40;99.90
9033;DHT22;4551;53.164;8.210;2023-05-07T02:29:18;10.30;99.90
9033;DHT22;4551;53.164;8.210;2023-05-07T02:31:47;10.40;99.90
9033;DHT22;4551;53.164;8.210;2023-05-07T02:34:17;10.50;99.90
9033;DHT22;4551;53.164;8.210;2023-05-07T02:36:45;10.60;99.90
9033;DHT22;4551;53.164;8.210;2023-05-07T02:39:16;10.40;99.90
9033;DHT22;4551;53.164;8.210;2023-05-07T02:41:44;10.40;99.90
9033;DHT22;4551;53.164;8.210;2023-05-07T02:44:12;10.40;99.90
9033;DHT22;4551;53.164;8.210;2023-05-07T02:46:41;10.50;99.90
9033;DHT22;4551;53.164;8.210;2023-05-07T02:49:09;10.50;99.90
9033;DHT22;4551;53.164;8.210;2023-05-07T02:51:37;10.30;99.90
9033;DHT22;4551;53.164;8.210;2023-05-07T02:54:05;10.40;99.90
9033;DHT22;4551;53.164;8.210;2023-05-07T02:56:33;10.50;99.90
9033;DHT22;4551;53.164;8.210;2023-05-07T02:59:01;10.40;99.90
9033;DHT22;4551;53.164;8.210;2023-05-07T03:01:32;10.40;99.90
9033;DHT22;4551;53.164;8.210;2023-05-07T03:04:04;10.20;99.90
9033;DHT22;4551;53.164;8.210;2023-05-07T03:06:32;10.20;99.90
9033;DHT22;4551;53.164;8.210;2023-05-07T03:09:00;10.30;99.90
9033;DHT22;4551;53.164;8.210;2023-05-07T03:11:29;10.30;99.90
9033;DHT22;4551;53.164;8.210;2023-05-07T03:13:58;10.20;99.90
9033;DHT22;4551;53.164;8.210;2023-05-07T03:16:26;10.20;99.90
9033;DHT22;4551;53.164;8.210;2023-05-07T03:18:54;10.30;99.90
9033;DHT22;4551;53.164;8.210;2023-05-07T03:21:24;10.30;99.90
9033;DHT22;4551;53.164;8.210;2023-05-07T03:23:53;10.30;99.90
9033;DHT22;4551;53.164;8.210;2023-05-07T03:26:23;10.30;99.90
9033;DHT22;4551;53.164;8.210;2023-05-07T03:28:53;10.30;99.90
9033;DHT22;4551;53.164;8.210;2023-05-07T03:31:22;10.20;99.90
9033;DHT22;4551;53.164;8.210;2023-05-07T03:33:50;10.20;99.90
9033;DHT22;4551;53.164;8.210;2023-05-07T03:36:19;10.20;99.90
9033;DHT22;4551;53.164;8.210;2023-05-07T03:38:51;10.20;99.90
9033;DHT22;4551;53.164;8.210;2023-05-07T03:41:19;10.20;99.90
9033;DHT22;4551;53.164;8.210;2023-05-07T03:43:48;10.20;99.90
9033;DHT22;4551;53.164;8.210;2023-05-07T03:46:16;10.20;99.90
9033;DHT22;4551;53.164;8.210;2023-05-07T03:48:44;10.20;99.90
9033;DHT22;4551;53.164;8.210;2023-05-07T03:51:12;10.20;99.90
9033;DHT22;4551;53.164;8.210;2023-05-07T03:53:40;10.20;99.90
9033;DHT22;4551;53.164;8.210;2023-05-07T03:56:09;10.30;99.90
9033;DHT22;4551;53.164;8.210;2023-05-07T03:58:39;10.10;99.90
9033;DHT22;4551;53.164;8.210;2023-05-07T04:01:08;10.40;99.90
9033;DHT22;4551;53.164;8.210;2023-05-07T04:03:37;9.90;99.90
9033;DHT22;4551;53.164;8.210;2023-05-07T04:06:07;10.00;99.90
9033;DHT22;4551;53.164;8.210;2023-05-07T04:08:35;10.10;99.90
9033;DHT22;4551;53.164;8.210;2023-05-07T04:11:03;10.00;99.90
9033;DHT22;4551;53.164;8.210;2023-05-07T04:13:32;10.10;99.90
9033;DHT22;4551;53.164;8.210;2023-05-07T04:16:01;10.00;99.90
9033;DHT22;4551;53.164;8.210;2023-05-07T04:18:31;9.90;99.90
9033;DHT22;4551;53.164;8.210;2023-05-07T04:20:59;9.90;99.90
9033;DHT22;4551;53.164;8.210;2023-05-07T04:23:27;9.90;99.90
9033;DHT22;4551;53.164;8.210;2023-05-07T04:25:55;10.00;99.90
9033;DHT22;4551;53.164;8.210;2023-05-07T04:28:24;9.90;99.90
9033;DHT22;4551;53.164;8.210;2023-05-07T04:30:55;10.00;99.90
9033;DHT22;4551;53.164;8.210;2023-05-07T04:33:23;10.00;99.90
9033;DHT22;4551;53.164;8.210;2023-05-07T04:35:53;10.00;99.90
9033;DHT22;4551;53.164;8.210;2023-05-07T04:38:21;10.00;99.90
9033;DHT22;4551;53.164;8.210;2023-05-07T04:40:51;9.90;99.90
9033;DHT22;4551;53.164;8.210;2023-05-07T04:43:19;10.00;99.90
9033;DHT22;4551;53.164;8.210;2023-05-07T04:45:49;10.00;99.90
9033;DHT22;4551;53.164;8.210;2023-05-07T04:48:18;10.00;99.90
9033;DHT22;4551;53.164;8.210;2023-05-07T04:50:47;10.00;99.90
9033;DHT22;4551;53.164;8.210;2023-05-07T04:53:17;10.10;99.90
9033;DHT22;4551;53.164;8.210;2023-05-07T04:55:45;10.10;99.90
9033;DHT22;4551;53.164;8.210;2023-05-07T04:58:13;10.20;99.90
9033;DHT22;4551;53.164;8.210;2023-05-07T05:00:44;10.20;99.90
9033;DHT22;4551;53.164;8.210;2023-05-07T05:03:12;10.10;99.90
9033;DHT22;4551;53.164;8.210;2023-05-07T05:05:41;10.10;99.90
9033;DHT22;4551;53.164;8.210;2023-05-07T05:08:14;10.10;99.90
9033;DHT22;4551;53.164;8.210;2023-05-07T05:10:43;10.20;99.90
9033;DHT22;4551;53.164;8.210;2023-05-07T05:13:11;10.20;99.90
9033;DHT22;4551;53.164;8.210;2023-05-07T05:15:40;10.20;99.90
9033;DHT22;4551;53.164;8.210;2023-05-07T05:18:09;10.20;99.90
9033;DHT22;4551;53.164;8.210;2023-05-07T05:20:37;10.20;99.90
9033;DHT22;4551;53.164;8.210;2023-05-07T05:23:07;10.20;99.90
9033;DHT22;4551;53.164;8.210;2023-05-07T05:25:35;10.30;99.90
9033;DHT22;4551;53.164;8.210;2023-05-07T05:28:04;10.20;99.90
9033;DHT22;4551;53.164;8.210;2023-05-07T05:30:32;10.20;99.90
9033;DHT22;4551;53.164;8.210;2023-05-07T05:33:00;10.20;99.90
9033;DHT22;4551;53.164;8.210;2023-05-07T05:35:29;10.30;99.90
9033;DHT22;4551;53.164;8.210;2023-05-07T05:38:02;10.20;99.90
9033;DHT22;4551;53.164;8.210;2023-05-07T05:40:31;10.10;99.90
9033;DHT22;4551;53.164;8.210;2023-05-07T05:43:00;10.20;99.90
9033;DHT22;4551;53.164;8.210;2023-05-07T05:45:36;10.20;99.90
9033;DHT22;4551;53.164;8.210;2023-05-07T05:48:05;10.30;99.90
9033;DHT22;4551;53.164;8.210;2023-05-07T05:50:33;10.20;99.90
9033;DHT22;4551;53.164;8.210;2023-05-07T05:53:02;10.10;99.90
9033;DHT22;4551;53.164;8.210;2023-05-07T05:55:31;10.20;99.90
9033;DHT22;4551;53.164;8.210;2023-05-07T05:58:00;10.20;99.90
9033;DHT22;4551;53.164;8.210;2023-05-07T06:00:28;10.10;99.90
9033;DHT22;4551;53.164;8.210;2023-05-07T06:02:56;10.10;99.90
9033;DHT22;4551;53.164;8.210;2023-05-07T06:05:24;10.20;99.90
9033;DHT22;4551;53.164;8.210;2023-05-07T06:07:53;10.20;99.90
9033;DHT22;4551;53.164;8.210;2023-05-07T06:10:21;10.20;99.90
9033;DHT22;4551;53.164;8.210;2023-05-07T06:12:50;10.20;99.90
9033;DHT22;4551;53.164;8.210;2023-05-07T06:15:18;10.20;99.90
9033;DHT22;4551;53.164;8.210;2023-05-07T06:17:49;10.20;99.90
9033;DHT22;4551;53.164;8.210;2023-05-07T06:20:17;10.20;99.90
9033;DHT22;4551;53.164;8.210;2023-05-07T06:22:45;10.10;99.90
9033;DHT22;4551;53.164;8.210;2023-05-07T06:25:13;10.10;99.90
9033;DHT22;4551;53.164;8.210;2023-05-07T06:27:41;10.20;99.90
9033;DHT22;4551;53.164;8.210;2023-05-07T06:30:10;10.20;99.90
9033;DHT22;4551;53.164;8.210;2023-05-07T06:32:39;10.10;99.90
9033;DHT22;4551;53.164;8.210;2023-05-07T06:35:08;10.10;99.90
9033;DHT22;4551;53.164;8.210;2023-05-07T06:37:36;10.00;99.90
9033;DHT22;4551;53.164;8.210;2023-05-07T06:40:06;10.00;99.90
9033;DHT22;4551;53.164;8.210;2023-05-07T06:42:35;10.10;99.90
9033;DHT22;4551;53.164;8.210;2023-05-07T06:45:03;10.20;99.90
9033;DHT22;4551;53.164;8.210;2023-05-07T06:47:33;10.20;99.90
9033;DHT22;4551;53.164;8.210;2023-05-07T06:50:01;10.20;99.90
9033;DHT22;4551;53.164;8.210;2023-05-07T06:52:29;10.10;99.90
9033;DHT22;4551;53.164;8.210;2023-05-07T06:54:57;9.50;99.90
9033;DHT22;4551;53.164;8.210;2023-05-07T06:57:25;10.20;99.90
9033;DHT22;4551;53.164;8.210;2023-05-07T06:59:53;10.20;99.90
9033;DHT22;4551;53.164;8.210;2023-05-07T07:02:21;10.20;99.90
9033;DHT22;4551;53.164;8.210;2023-05-07T07:04:51;10.30;99.90
9033;DHT22;4551;53.164;8.210;2023-05-07T07:07:19;10.40;99.90
9033;DHT22;4551;53.164;8.210;2023-05-07T07:09:47;10.30;99.90
9033;DHT22;4551;53.164;8.210;2023-05-07T07:12:15;10.20;99.90
9033;DHT22;4551;53.164;8.210;2023-05-07T07:14:43;10.30;99.90
9033;DHT22;4551;53.164;8.210;2023-05-07T07:17:11;10.50;99.90
9033;DHT22;4551;53.164;8.210;2023-05-07T07:19:39;12.00;99.90
9033;DHT22;4551;53.164;8.210;2023-05-07T07:22:08;10.40;99.90
9033;DHT22;4551;53.164;8.210;2023-05-07T07:24:36;10.40;99.90
9033;DHT22;4551;53.164;8.210;2023-05-07T07:27:04;10.50;99.90
9033;DHT22;4551;53.164;8.210;2023-05-07T07:29:32;10.50;99.90
9033;DHT22;4551;53.164;8.210;2023-05-07T07:32:00;10.60;99.90
9033;DHT22;4551;53.164;8.210;2023-05-07T07:34:28;10.50;99.90
9033;DHT22;4551;53.164;8.210;2023-05-07T07:36:56;10.60;99.90
9033;DHT22;4551;53.164;8.210;2023-05-07T07:39:26;10.70;99.90
9033;DHT22;4551;53.164;8.210;2023-05-07T07:41:54;10.70;99.90
9033;DHT22;4551;53.164;8.210;2023-05-07T07:44:22;10.80;99.90
9033;DHT22;4551;53.164;8.210;2023-05-07T07:46:50;10.80;99.90
9033;DHT22;4551;53.164;8.210;2023-05-07T07:49:18;10.80;99.90
9033;DHT22;4551;53.164;8.210;2023-05-07T07:51:48;10.80;99.90
9033;DHT22;4551;53.164;8.210;2023-05-07T07:54:17;10.90;99.90
9033;DHT22;4551;53.164;8.210;2023-05-07T07:56:47;11.00;99.90
9033;DHT22;4551;53.164;8.210;2023-05-07T07:59:15;11.00;99.90
9033;DHT22;4551;53.164;8.210;2023-05-07T08:01:46;11.00;99.90
9033;DHT22;4551;53.164;8.210;2023-05-07T08:04:19;11.00;99.90
9033;DHT22;4551;53.164;8.210;2023-05-07T08:06:47;11.00;99.90
9033;DHT22;4551;53.164;8.210;2023-05-07T08:09:15;11.10;99.90
9033;DHT22;4551;53.164;8.210;2023-05-07T08:11:43;11.10;99.90
9033;DHT22;4551;53.164;8.210;2023-05-07T08:14:13;11.00;99.90
9033;DHT22;4551;53.164;8.210;2023-05-07T08:16:42;11.10;99.90
9033;DHT22;4551;53.164;8.210;2023-05-07T08:19:12;11.10;99.90
9033;DHT22;4551;53.164;8.210;2023-05-07T08:21:40;11.10;99.90
9033;DHT22;4551;53.164;8.210;2023-05-07T08:24:08;11.10;99.90
9033;DHT22;4551;53.164;8.210;2023-05-07T08:26:36;11.30;99.90
9033;DHT22;4551;53.164;8.210;2023-05-07T08:29:05;11.00;99.90
9033;DHT22;4551;53.164;8.210;2023-05-07T08:31:35;11.10;99.90
9033;DHT22;4551;53.164;8.210;2023-05-07T08:34:03;11.10;99.90
9033;DHT22;4551;53.164;8.210;2023-05-07T08:36:33;11.10;99.90
9033;DHT22;4551;53.164;8.210;2023-05-07T08:39:02;11.20;99.90
9033;DHT22;4551;53.164;8.210;2023-05-07T08:41:30;11.30;99.90
9033;DHT22;4551;53.164;8.210;2023-05-07T08:44:03;11.40;99.90
9033;DHT22;4551;53.164;8.210;2023-05-07T08:46:34;11.50;99.90
9033;DHT22;4551;53.164;8.210;2023-05-07T08:49:02;11.50;99.90
9033;DHT22;4551;53.164;8.210;2023-05-07T08:51:31;11.50;99.90
9033;DHT22;4551;53.164;8.210;2023-05-07T08:53:59;11.50;99.90
9033;DHT22;4551;53.164;8.210;2023-05-07T08:56:27;11.60;99.90
9033;DHT22;4551;53.164;8.210;2023-05-07T08:58:55;11.70;99.90
9033;DHT22;4551;53.164;8.210;2023-05-07T09:01:25;11.60;99.90
9033;DHT22;4551;53.164;8.210;2023-05-07T09:03:55;11.60;99.90
9033;DHT22;4551;53.164;8.210;2023-05-07T09:06:24;11.60;99.90
9033;DHT22;4551;53.164;8.210;2023-05-07T09:08:53;11.70;99.90
9033;DHT22;4551;53.164;8.210;2023-05-07T09:11:22;11.70;99.90
9033;DHT22;4551;53.164;8.210;2023-05-07T09:13:53;11.70;99.90
9033;DHT22;4551;53.164;8.210;2023-05-07T09:16:21;11.90;99.90
9033;DHT22;4551;53.164;8.210;2023-05-07T09:18:50;12.10;99.90
9033;DHT22;4551;53.164;8.210;2023-05-07T09:21:21;12.00;99.90
9033;DHT22;4551;53.164;8.210;2023-05-07T09:23:52;12.00;99.90
9033;DHT22;4551;53.164;8.210;2023-05-07T09:26:20;12.00;99.90
9033;DHT22;4551;53.164;8.210;2023-05-07T09:28:49;12.20;99.90
9033;DHT22;4551;53.164;8.210;2023-05-07T09:31:18;12.20;99.90
9033;DHT22;4551;53.164;8.210;2023-05-07T09:33:47;12.30;99.90
9033;DHT22;4551;53.164;8.210;2023-05-07T09:36:15;12.40;99.90
9033;DHT22;4551;53.164;8.210;2023-05-07T09:38:45;12.40;99.90
9033;DHT22;4551;53.164;8.210;2023-05-07T09:41:13;12.60;99.90
9033;DHT22;4551;53.164;8.210;2023-05-07T09:43:42;12.70;99.90
9033;DHT22;4551;53.164;8.210;2023-05-07T09:46:13;12.90;99.90
9033;DHT22;4551;53.164;8.210;2023-05-07T09:48:42;12.90;99.90
9033;DHT22;4551;53.164;8.210;2023-05-07T09:51:13;13.00;99.90
9033;DHT22;4551;53.164;8.210;2023-05-07T09:53:47;12.90;99.90
9033;DHT22;4551;53.164;8.210;2023-05-07T09:56:16;12.90;99.90
9033;DHT22;4551;53.164;8.210;2023-05-07T09:58:44;13.10;99.90
9033;DHT22;4551;53.164;8.210;2023-05-07T10:01:13;13.20;99.90
9033;DHT22;4551;53.164;8.210;2023-05-07T10:03:41;12.00;99.90
9033;DHT22;4551;53.164;8.210;2023-05-07T10:06:10;13.40;99.90
9033;DHT22;4551;53.164;8.210;2023-05-07T10:08:40;13.30;99.90
9033;DHT22;4551;53.164;8.210;2023-05-07T10:11:12;13.30;99.90
9033;DHT22;4551;53.164;8.210;2023-05-07T10:13:41;13.40;99.90
9033;DHT22;4551;53.164;8.210;2023-05-07T10:16:14;13.50;99.90
9033;DHT22;4551;53.164;8.210;2023-05-07T10:18:44;13.80;99.90
9033;DHT22;4551;53.164;8.210;2023-05-07T10:21:14;13.90;99.90
9033;DHT22;4551;53.164;8.210;2023-05-07T10:23:44;14.00;99.90
9033;DHT22;4551;53.164;8.210;2023-05-07T10:26:14;13.90;99.90
9033;DHT22;4551;53.164;8.210;2023-05-07T10:28:50;14.10;99.90
9033;DHT22;4551;53.164;8.210;2023-05-07T10:31:25;14.10;99.90
9033;DHT22;4551;53.164;8.210;2023-05-07T10:33:59;14.30;99.90
9033;DHT22;4551;53.164;8.210;2023-05-07T10:36:30;14.40;99.90
9033;DHT22;4551;53.164;8.210;2023-05-07T10:38:58;14.50;99.90
9033;DHT22;4551;53.164;8.210;2023-05-07T10:41:28;14.60;99.90
9033;DHT22;4551;53.164;8.210;2023-05-07T10:43:56;14.70;99.90
9033;DHT22;4551;53.164;8.210;2023-05-07T10:46:27;14.60;99.90
9033;DHT22;4551;53.164;8.210;2023-05-07T10:49:11;14.60;99.90
9033;DHT22;4551;53.164;8.210;2023-05-07T10:51:39;14.80;99.90
9033;DHT22;4551;53.164;8.210;2023-05-07T10:54:22;14.90;99.90
9033;DHT22;4551;53.164;8.210;2023-05-07T10:56:55;14.80;99.90
9033;DHT22;4551;53.164;8.210;2023-05-07T10:59:35;14.90;99.90
9033;DHT22;4551;53.164;8.210;2023-05-07T11:02:08;15.00;99.90
9033;DHT22;4551;53.164;8.210;2023-05-07T11:04:40;15.10;99.90
9033;DHT22;4551;53.164;8.210;2023-05-07T11:07:23;15.20;99.90
9033;DHT22;4551;53.164;8.210;2023-05-07T11:09:55;15.30;99.90
9033;DHT22;4551;53.164;8.210;2023-05-07T11:15:13;15.60;99.90
9033;DHT22;4551;53.164;8.210;2023-05-07T11:17:52;15.50;99.90
9033;DHT22;4551;53.164;8.210;2023-05-07T11:20:20;15.80;99.90
9033;DHT22;4551;53.164;8.210;2023-05-07T11:22:48;15.80;99.90
9033;DHT22;4551;53.164;8.210;2023-05-07T11:25:17;16.00;99.90
9033;DHT22;4551;53.164;8.210;2023-05-07T11:27:45;16.10;99.90
9033;DHT22;4551;53.164;8.210;2023-05-07T11:30:17;16.20;99.90
9033;DHT22;4551;53.164;8.210;2023-05-07T11:32:47;16.00;99.90
9033;DHT22;4551;53.164;8.210;2023-05-07T11:35:15;15.90;99.90
9033;DHT22;4551;53.164;8.210;2023-05-07T11:37:44;15.90;99.90
9033;DHT22;4551;53.164;8.210;2023-05-07T11:40:13;16.10;99.90
9033;DHT22;4551;53.164;8.210;2023-05-07T11:42:43;16.30;99.90
9033;DHT22;4551;53.164;8.210;2023-05-07T11:45:11;16.30;99.90
9033;DHT22;4551;53.164;8.210;2023-05-07T11:47:42;16.30;99.90
9033;DHT22;4551;53.164;8.210;2023-05-07T11:50:15;16.30;99.90
9033;DHT22;4551;53.164;8.210;2023-05-07T11:52:51;16.40;99.90
9033;DHT22;4551;53.164;8.210;2023-05-07T11:55:19;16.20;99.90
9033;DHT22;4551;53.164;8.210;2023-05-07T11:57:49;16.00;99.90
9033;DHT22;4551;53.164;8.210;2023-05-07T12:00:17;16.10;99.90
9033;DHT22;4551;53.164;8.210;2023-05-07T12:02:49;16.10;99.90
9033;DHT22;4551;53.164;8.210;2023-05-07T12:05:19;16.30;99.90
9033;DHT22;4551;53.164;8.210;2023-05-07T12:07:49;16.40;99.90
9033;DHT22;4551;53.164;8.210;2023-05-07T12:10:23;16.40;99.90
9033;DHT22;4551;53.164;8.210;2023-05-07T12:12:51;16.20;99.90
9033;DHT22;4551;53.164;8.210;2023-05-07T12:15:22;15.90;99.90
9033;DHT22;4551;53.164;8.210;2023-05-07T12:17:51;16.10;99.90
9033;DHT22;4551;53.164;8.210;2023-05-07T12:20:22;16.20;99.90
9033;DHT22;4551;53.164;8.210;2023-05-07T12:22:51;16.40;99.90
9033;DHT22;4551;53.164;8.210;2023-05-07T12:25:19;16.60;99.90
9033;DHT22;4551;53.164;8.210;2023-05-07T12:27:51;16.60;99.90
9033;DHT22;4551;53.164;8.210;2023-05-07T12:30:19;16.70;99.90
9033;DHT22;4551;53.164;8.210;2023-05-07T12:32:53;16.50;99.90
9033;DHT22;4551;53.164;8.210;2023-05-07T12:35:27;16.60;99.90
9033;DHT22;4551;53.164;8.210;2023-05-07T12:37:55;16.30;99.90
9033;DHT22;4551;53.164;8.210;2023-05-07T12:40:34;15.80;99.90
9033;DHT22;4551;53.164;8.210;2023-05-07T12:43:02;15.50;99.90
9033;DHT22;4551;53.164;8.210;2023-05-07T12:45:31;15.60;99.90
9033;DHT22;4551;53.164;8.210;2023-05-07T12:48:02;15.70;99.90
9033;DHT22;4551;53.164;8.210;2023-05-07T12:50:33;15.70;99.90
9033;DHT22;4551;53.164;8.210;2023-05-07T12:53:09;15.70;99.90
9033;DHT22;4551;53.164;8.210;2023-05-07T12:55:41;15.60;99.90
9033;DHT22;4551;53.164;8.210;2023-05-07T12:58:14;15.60;99.90
9033;DHT22;4551;53.164;8.210;2023-05-07T13:00:45;15.90;99.90
9033;DHT22;4551;53.164;8.210;2023-05-07T13:03:22;16.10;99.90
9033;DHT22;4551;53.164;8.210;2023-05-07T13:05:51;16.00;99.90
9033;DHT22;4551;53.164;8.210;2023-05-07T13:08:23;16.40;99.90
9033;DHT22;4551;53.164;8.210;2023-05-07T13:10:51;16.50;99.90
9033;DHT22;4551;53.164;8.210;2023-05-07T13:13:19;16.60;99.90
9033;DHT22;4551;53.164;8.210;2023-05-07T13:15:47;16.50;99.90
9033;DHT22;4551;53.164;8.210;2023-05-07T13:18:15;16.80;99.90
9033;DHT22;4551;53.164;8.210;2023-05-07T13:20:45;16.90;99.90
9033;DHT22;4551;53.164;8.210;2023-05-07T13:23:13;17.10;99.90
9033;DHT22;4551;53.164;8.210;2023-05-07T13:25:47;17.20;99.90
9033;DHT22;4551;53.164;8.210;2023-05-07T13:28:16;17.30;99.90
9033;DHT22;4551;53.164;8.210;2023-05-07T13:30:44;17.50;99.90
9033;DHT22;4551;53.164;8.210;2023-05-07T13:33:14;17.80;99.90
9033;DHT22;4551;53.164;8.210;2023-05-07T13:35:42;18.10;99.90
9033;DHT22;4551;53.164;8.210;2023-05-07T13:38:11;18.00;99.90
9033;DHT22;4551;53.164;8.210;2023-05-07T13:40:39;18.10;99.90
9033;DHT22;4551;53.164;8.210;2023-05-07T13:43:07;18.30;99.90
9033;DHT22;4551;53.164;8.210;2023-05-07T13:45:35;18.30;99.90
9033;DHT22;4551;53.164;8.210;2023-05-07T13:48:04;18.40;99.90
9033;DHT22;4551;53.164;8.210;2023-05-07T13:50:32;18.80;99.90
9033;DHT22;4551;53.164;8.210;2023-05-07T13:53:01;19.00;99.90
9033;DHT22;4551;53.164;8.210;2023-05-07T13:55:31;19.40;99.90
9033;DHT22;4551;53.164;8.210;2023-05-07T13:58:03;19.90;99.90
9033;DHT22;4551;53.164;8.210;2023-05-07T14:00:33;20.30;99.90
9033;DHT22;4551;53.164;8.210;2023-05-07T14:03:02;20.40;99.90
9033;DHT22;4551;53.164;8.210;2023-05-07T14:05:32;21.00;99.90
9033;DHT22;4551;53.164;8.210;2023-05-07T14:08:02;21.20;99.90
9033;DHT22;4551;53.164;8.210;2023-05-07T14:10:32;21.50;99.90
9033;DHT22;4551;53.164;8.210;2023-05-07T14:13:02;22.60;99.90
9033;DHT22;4551;53.164;8.210;2023-05-07T14:15:31;24.50;99.90
9033;DHT22;4551;53.164;8.210;2023-05-07T14:18:01;25.20;99.90
9033;DHT22;4551;53.164;8.210;2023-05-07T14:20:29;25.60;99.90
9033;DHT22;4551;53.164;8.210;2023-05-07T14:22:57;25.70;99.90
9033;DHT22;4551;53.164;8.210;2023-05-07T14:25:25;25.80;99.90
9033;DHT22;4551;53.164;8.210;2023-05-07T14:27:55;26.40;99.90
9033;DHT22;4551;53.164;8.210;2023-05-07T14:30:23;26.20;99.90
9033;DHT22;4551;53.164;8.210;2023-05-07T14:32:54;26.20;99.90
9033;DHT22;4551;53.164;8.210;2023-05-07T14:35:23;26.70;99.90
9033;DHT22;4551;53.164;8.210;2023-05-07T14:37:54;26.30;99.90
9033;DHT22;4551;53.164;8.210;2023-05-07T14:40:22;26.60;99.90
9033;DHT22;4551;53.164;8.210;2023-05-07T14:42:52;27.20;99.90
9033;DHT22;4551;53.164;8.210;2023-05-07T14:45:21;27.30;99.90
9033;DHT22;4551;53.164;8.210;2023-05-07T14:47:49;26.90;99.90
9033;DHT22;4551;53.164;8.210;2023-05-07T14:50:17;26.90;99.90
9033;DHT22;4551;53.164;8.210;2023-05-07T14:52:45;27.00;99.90
9033;DHT22;4551;53.164;8.210;2023-05-07T14:55:17;27.10;99.90
9033;DHT22;4551;53.164;8.210;2023-05-07T14:57:55;26.40;99.90
9033;DHT22;4551;53.164;8.210;2023-05-07T15:00:30;26.60;99.90
9033;DHT22;4551;53.164;8.210;2023-05-07T15:03:04;27.20;99.90
9033;DHT22;4551;53.164;8.210;2023-05-07T15:05:32;27.30;99.90
9033;DHT22;4551;53.164;8.210;2023-05-07T15:08:01;27.80;99.90
9033;DHT22;4551;53.164;8.210;2023-05-07T15:10:29;29.20;99.90
9033;DHT22;4551;53.164;8.210;2023-05-07T15:12:57;29.40;99.90
9033;DHT22;4551;53.164;8.210;2023-05-07T15:15:25;30.10;99.90
9033;DHT22;4551;53.164;8.210;2023-05-07T15:17:55;31.40;99.90
9033;DHT22;4551;53.164;8.210;2023-05-07T15:20:23;31.60;99.90
9033;DHT22;4551;53.164;8.210;2023-05-07T15:22:51;30.60;99.90
9033;DHT22;4551;53.164;8.210;2023-05-07T15:25:19;30.60;99.90
9033;DHT22;4551;53.164;8.210;2023-05-07T15:27:47;28.80;99.90
9033;DHT22;4551;53.164;8.210;2023-05-07T15:30:16;28.30;99.90
9033;DHT22;4551;53.164;8.210;2023-05-07T15:32:44;27.10;99.90
9033;DHT22;4551;53.164;8.210;2023-05-07T15:35:13;28.40;99.90
9033;DHT22;4551;53.164;8.210;2023-05-07T15:37:41;29.60;99.90
9033;DHT22;4551;53.164;8.210;2023-05-07T15:40:11;30.60;99.90
9033;DHT22;4551;53.164;8.210;2023-05-07T15:42:40;31.10;99.90
9033;DHT22;4551;53.164;8.210;2023-05-07T15:45:08;30.40;99.90
9033;DHT22;4551;53.164;8.210;2023-05-07T15:47:37;29.30;99.90
9033;DHT22;4551;53.164;8.210;2023-05-07T15:50:06;29.10;99.90
9033;DHT22;4551;53.164;8.210;2023-05-07T15:52:35;28.30;99.90
9033;DHT22;4551;53.164;8.210;2023-05-07T15:55:05;27.00;99.90
9033;DHT22;4551;53.164;8.210;2023-05-07T15:57:33;26.50;99.90
9033;DHT22;4551;53.164;8.210;2023-05-07T16:00:01;26.40;99.90
9033;DHT22;4551;53.164;8.210;2023-05-07T16:02:34;26.00;99.90
9033;DHT22;4551;53.164;8.210;2023-05-07T16:05:04;25.70;99.90
9033;DHT22;4551;53.164;8.210;2023-05-07T16:07:35;25.30;99.90
9033;DHT22;4551;53.164;8.210;2023-05-07T16:10:04;24.90;99.90
9033;DHT22;4551;53.164;8.210;2023-05-07T16:12:32;24.40;99.90
9033;DHT22;4551;53.164;8.210;2023-05-07T16:15:00;24.20;99.90
9033;DHT22;4551;53.164;8.210;2023-05-07T16:17:30;24.20;99.90
9033;DHT22;4551;53.164;8.210;2023-05-07T16:19:58;23.10;99.90